Curtin, Australia
Current Conditions -  °F | °C
As of 5:30 AM on Tuesday 25 Nov 2014 (Local Time) from YCIN Reporting Station
Clear Clear  
Wind Chill: 82°   Ceiling: Unl
Heat Index: 85°   Visibility: NA
Dew Point: 68°   Wind: 5mph
Humidity: 62%   Direction: 80°E
Pressure: 29.77"   Gusts: NA
Location:  17.58°S, 123.83°E
Report Text: YCIN 242130Z AUTO 08004KT //// // NCD 28/20 Q1008
Loading
Personal Weather Stations






























Interactive Weather Map New forecast layout! Learn more

10-Day Weather Forecast

Advertisements
Track Severe Weather on mobile